sensor_id;sensor_type;location;lat;lon;timestamp;pressure;altitude;pressure_sealevel;temperature;humidity
74524;BME280;63074;44.696;10.358;2022-10-16T00:01:24;100374.22;;;18.38;100.00
74524;BME280;63074;44.696;10.358;2022-10-16T00:03:50;100359.50;;;18.44;100.00
74524;BME280;63074;44.696;10.358;2022-10-16T00:06:18;100360.88;;;18.42;100.00
74524;BME280;63074;44.696;10.358;2022-10-16T00:08:44;100366.31;;;18.42;100.00
74524;BME280;63074;44.696;10.358;2022-10-16T00:11:13;100374.50;;;18.32;100.00
74524;BME280;63074;44.696;10.358;2022-10-16T00:13:40;100380.50;;;18.29;100.00
74524;BME280;63074;44.696;10.358;2022-10-16T00:16:07;100386.00;;;18.13;100.00
74524;BME280;63074;44.696;10.358;2022-10-16T00:18:33;100388.19;;;18.11;100.00
74524;BME280;63074;44.696;10.358;2022-10-16T00:21:07;100377.53;;;18.20;100.00
74524;BME280;63074;44.696;10.358;2022-10-16T00:23:34;100385.47;;;18.16;100.00
74524;BME280;63074;44.696;10.358;2022-10-16T00:26:03;100387.59;;;18.19;100.00
74524;BME280;63074;44.696;10.358;2022-10-16T00:28:29;100389.22;;;18.20;100.00
74524;BME280;63074;44.696;10.358;2022-10-16T00:30:56;100393.84;;;18.25;100.00
74524;BME280;63074;44.696;10.358;2022-10-16T00:33:22;100401.19;;;18.19;100.00
74524;BME280;63074;44.696;10.358;2022-10-16T00:35:47;100391.72;;;18.17;100.00
74524;BME280;63074;44.696;10.358;2022-10-16T00:38:13;100392.81;;;18.16;100.00
74524;BME280;63074;44.696;10.358;2022-10-16T00:40:39;100391.66;;;18.22;100.00
74524;BME280;63074;44.696;10.358;2022-10-16T00:43:49;100386.72;;;18.34;100.00
74524;BME280;63074;44.696;10.358;2022-10-16T00:48:39;100389.72;;;18.33;100.00
74524;BME280;63074;44.696;10.358;2022-10-16T00:51:05;100388.66;;;18.29;100.00
74524;BME280;63074;44.696;10.358;2022-10-16T00:53:32;100386.16;;;18.42;99.87
74524;BME280;63074;44.696;10.358;2022-10-16T00:55:58;100391.91;;;18.31;100.00
74524;BME280;63074;44.696;10.358;2022-10-16T00:58:24;100392.69;;;18.41;99.62
74524;BME280;63074;44.696;10.358;2022-10-16T01:00:49;100392.16;;;18.39;99.25
74524;BME280;63074;44.696;10.358;2022-10-16T01:03:24;100391.09;;;18.35;99.26
74524;BME280;63074;44.696;10.358;2022-10-16T01:05:58;100401.69;;;18.32;98.96
74524;BME280;63074;44.696;10.358;2022-10-16T01:08:36;100394.63;;;18.31;99.40
74524;BME280;63074;44.696;10.358;2022-10-16T01:11:17;100389.47;;;18.24;99.63
74524;BME280;63074;44.696;10.358;2022-10-16T01:13:46;100392.19;;;18.29;99.58
74524;BME280;63074;44.696;10.358;2022-10-16T01:16:32;100384.88;;;18.19;100.00
74524;BME280;63074;44.696;10.358;2022-10-16T01:19:13;100388.94;;;18.22;100.00
74524;BME280;63074;44.696;10.358;2022-10-16T01:21:44;100393.00;;;18.30;99.90
74524;BME280;63074;44.696;10.358;2022-10-16T01:29:56;100387.94;;;17.93;100.00
74524;BME280;63074;44.696;10.358;2022-10-16T01:32:39;100385.28;;;17.72;100.00
74524;BME280;63074;44.696;10.358;2022-10-16T01:35:18;100382.53;;;17.87;100.00
74524;BME280;63074;44.696;10.358;2022-10-16T01:38:00;100388.00;;;17.72;100.00
74524;BME280;63074;44.696;10.358;2022-10-16T01:40:29;100381.75;;;17.57;100.00
74524;BME280;63074;44.696;10.358;2022-10-16T01:43:04;100391.25;;;17.49;100.00
74524;BME280;63074;44.696;10.358;2022-10-16T01:45:31;100386.38;;;17.46;100.00
74524;BME280;63074;44.696;10.358;2022-10-16T01:48:00;100388.25;;;17.45;100.00
74524;BME280;63074;44.696;10.358;2022-10-16T01:50:31;100386.91;;;17.43;100.00
74524;BME280;63074;44.696;10.358;2022-10-16T01:52:58;100394.53;;;17.31;100.00
74524;BME280;63074;44.696;10.358;2022-10-16T01:55:29;100392.63;;;17.26;100.00
74524;BME280;63074;44.696;10.358;2022-10-16T01:57:57;100397.50;;;17.24;100.00
74524;BME280;63074;44.696;10.358;2022-10-16T02:00:26;100395.34;;;17.26;100.00
74524;BME280;63074;44.696;10.358;2022-10-16T02:02:53;100393.44;;;17.21;100.00
74524;BME280;63074;44.696;10.358;2022-10-16T02:05:59;100398.31;;;17.35;100.00
74524;BME280;63074;44.696;10.358;2022-10-16T02:08:28;100397.22;;;17.20;100.00
74524;BME280;63074;44.696;10.358;2022-10-16T02:10:56;100397.78;;;17.17;100.00
74524;BME280;63074;44.696;10.358;2022-10-16T02:13:28;100407.78;;;17.07;100.00
74524;BME280;63074;44.696;10.358;2022-10-16T02:15:55;100401.81;;;17.05;100.00
74524;BME280;63074;44.696;10.358;2022-10-16T02:18:21;100405.03;;;16.81;100.00
74524;BME280;63074;44.696;10.358;2022-10-16T02:20:59;100399.06;;;16.84;100.00
74524;BME280;63074;44.696;10.358;2022-10-16T02:24:01;100401.78;;;16.84;100.00
74524;BME280;63074;44.696;10.358;2022-10-16T02:26:36;100396.88;;;16.76;100.00
74524;BME280;63074;44.696;10.358;2022-10-16T02:29:07;100390.63;;;16.76;100.00
74524;BME280;63074;44.696;10.358;2022-10-16T02:31:35;100396.34;;;16.79;100.00
74524;BME280;63074;44.696;10.358;2022-10-16T02:34:04;100392.53;;;16.75;100.00
74524;BME280;63074;44.696;10.358;2022-10-16T02:36:33;100397.44;;;16.83;100.00
74524;BME280;63074;44.696;10.358;2022-10-16T02:39:00;100392.44;;;16.55;100.00
74524;BME280;63074;44.696;10.358;2022-10-16T02:41:27;100401.44;;;16.61;100.00
74524;BME280;63074;44.696;10.358;2022-10-16T02:43:52;100405.19;;;16.54;100.00
74524;BME280;63074;44.696;10.358;2022-10-16T02:46:18;100403.69;;;16.74;100.00
74524;BME280;63074;44.696;10.358;2022-10-16T02:48:44;100407.63;;;16.51;100.00
74524;BME280;63074;44.696;10.358;2022-10-16T02:51:09;100399.75;;;16.44;100.00
74524;BME280;63074;44.696;10.358;2022-10-16T02:53:35;100408.16;;;16.53;100.00
74524;BME280;63074;44.696;10.358;2022-10-16T02:56:01;100402.44;;;16.39;100.00
74524;BME280;63074;44.696;10.358;2022-10-16T02:58:26;100417.09;;;16.38;100.00
74524;BME280;63074;44.696;10.358;2022-10-16T03:00:52;100411.94;;;16.42;100.00
74524;BME280;63074;44.696;10.358;2022-10-16T03:03:17;100409.50;;;16.40;100.00
74524;BME280;63074;44.696;10.358;2022-10-16T03:05:43;100409.78;;;16.44;100.00
74524;BME280;63074;44.696;10.358;2022-10-16T03:08:13;100413.78;;;16.31;100.00
74524;BME280;63074;44.696;10.358;2022-10-16T03:10:39;100412.22;;;16.40;100.00
74524;BME280;63074;44.696;10.358;2022-10-16T03:13:04;100410.91;;;16.58;100.00
74524;BME280;63074;44.696;10.358;2022-10-16T03:15:30;100422.00;;;16.51;100.00
74524;BME280;63074;44.696;10.358;2022-10-16T03:17:58;100417.34;;;16.37;100.00
74524;BME280;63074;44.696;10.358;2022-10-16T03:20:25;100419.25;;;16.36;100.00
74524;BME280;63074;44.696;10.358;2022-10-16T03:22:50;100417.94;;;16.44;100.00
74524;BME280;63074;44.696;10.358;2022-10-16T03:25:16;100428.47;;;16.40;100.00
74524;BME280;63074;44.696;10.358;2022-10-16T03:27:41;100423.03;;;16.35;100.00
74524;BME280;63074;44.696;10.358;2022-10-16T03:30:07;100420.38;;;15.98;100.00
74524;BME280;63074;44.696;10.358;2022-10-16T03:32:33;100420.34;;;15.93;100.00
74524;BME280;63074;44.696;10.358;2022-10-16T03:34:58;100425.78;;;15.93;100.00
74524;BME280;63074;44.696;10.358;2022-10-16T03:37:24;100423.94;;;16.04;100.00
74524;BME280;63074;44.696;10.358;2022-10-16T03:39:50;100424.38;;;15.85;100.00
74524;BME280;63074;44.696;10.358;2022-10-16T03:42:16;100420.13;;;16.00;100.00
74524;BME280;63074;44.696;10.358;2022-10-16T03:44:42;100424.00;;;16.14;100.00
74524;BME280;63074;44.696;10.358;2022-10-16T03:47:07;100428.81;;;16.02;100.00
74524;BME280;63074;44.696;10.358;2022-10-16T03:49:32;100423.31;;;15.92;100.00
74524;BME280;63074;44.696;10.358;2022-10-16T03:51:58;100424.88;;;15.77;100.00
74524;BME280;63074;44.696;10.358;2022-10-16T03:54:23;100438.19;;;15.52;100.00
74524;BME280;63074;44.696;10.358;2022-10-16T03:56:49;100439.69;;;15.38;100.00
74524;BME280;63074;44.696;10.358;2022-10-16T03:59:14;100432.63;;;15.37;100.00
74524;BME280;63074;44.696;10.358;2022-10-16T04:01:40;100441.25;;;15.29;100.00
74524;BME280;63074;44.696;10.358;2022-10-16T04:04:05;100442.06;;;15.29;100.00
74524;BME280;63074;44.696;10.358;2022-10-16T04:06:31;100444.69;;;15.51;100.00
74524;BME280;63074;44.696;10.358;2022-10-16T04:08:56;100438.88;;;15.69;100.00
74524;BME280;63074;44.696;10.358;2022-10-16T04:11:22;100439.50;;;15.76;100.00
74524;BME280;63074;44.696;10.358;2022-10-16T04:13:47;100441.81;;;15.63;100.00
74524;BME280;63074;44.696;10.358;2022-10-16T04:16:13;100435.91;;;15.39;100.00
74524;BME280;63074;44.696;10.358;2022-10-16T04:18:39;100446.00;;;15.16;100.00
74524;BME280;63074;44.696;10.358;2022-10-16T04:21:05;100449.06;;;14.98;100.00
74524;BME280;63074;44.696;10.358;2022-10-16T04:23:31;100441.84;;;15.09;100.00
74524;BME280;63074;44.696;10.358;2022-10-16T04:25:57;100449.31;;;15.24;100.00
74524;BME280;63074;44.696;10.358;2022-10-16T04:28:23;100446.28;;;15.20;100.00
74524;BME280;63074;44.696;10.358;2022-10-16T04:30:50;100449.91;;;15.31;100.00
74524;BME280;63074;44.696;10.358;2022-10-16T04:33:16;100456.63;;;14.96;100.00
74524;BME280;63074;44.696;10.358;2022-10-16T04:35:41;100454.13;;;14.68;100.00
74524;BME280;63074;44.696;10.358;2022-10-16T04:38:07;100453.41;;;14.77;100.00
74524;BME280;63074;44.696;10.358;2022-10-16T04:40:33;100446.56;;;14.92;100.00
74524;BME280;63074;44.696;10.358;2022-10-16T04:43:02;100447.69;;;14.96;100.00
74524;BME280;63074;44.696;10.358;2022-10-16T04:45:27;100450.63;;;14.94;100.00
74524;BME280;63074;44.696;10.358;2022-10-16T04:47:56;100460.06;;;14.92;100.00
74524;BME280;63074;44.696;10.358;2022-10-16T04:50:22;100465.19;;;14.66;100.00
74524;BME280;63074;44.696;10.358;2022-10-16T04:52:47;100467.19;;;14.76;100.00
74524;BME280;63074;44.696;10.358;2022-10-16T04:55:13;100468.97;;;14.65;100.00
74524;BME280;63074;44.696;10.358;2022-10-16T04:57:38;100464.94;;;14.68;100.00
74524;BME280;63074;44.696;10.358;2022-10-16T05:00:04;100471.50;;;14.72;100.00
74524;BME280;63074;44.696;10.358;2022-10-16T05:02:30;100470.22;;;14.79;100.00
74524;BME280;63074;44.696;10.358;2022-10-16T05:04:55;100466.94;;;14.77;100.00
74524;BME280;63074;44.696;10.358;2022-10-16T05:07:21;100464.59;;;14.86;100.00
74524;BME280;63074;44.696;10.358;2022-10-16T05:09:49;100464.31;;;15.09;100.00
74524;BME280;63074;44.696;10.358;2022-10-16T05:12:14;100478.59;;;15.05;100.00
74524;BME280;63074;44.696;10.358;2022-10-16T05:14:39;100473.25;;;15.10;100.00
74524;BME280;63074;44.696;10.358;2022-10-16T05:17:05;100467.94;;;14.93;100.00
74524;BME280;63074;44.696;10.358;2022-10-16T05:19:30;100469.88;;;14.98;100.00
74524;BME280;63074;44.696;10.358;2022-10-16T05:21:56;100468.25;;;14.97;100.00
74524;BME280;63074;44.696;10.358;2022-10-16T05:24:21;100470.53;;;14.83;100.00
74524;BME280;63074;44.696;10.358;2022-10-16T05:26:46;100473.31;;;14.66;100.00
74524;BME280;63074;44.696;10.358;2022-10-16T05:29:12;100472.75;;;14.64;100.00
74524;BME280;63074;44.696;10.358;2022-10-16T05:31:37;100483.06;;;14.67;100.00
74524;BME280;63074;44.696;10.358;2022-10-16T05:34:03;100485.38;;;14.59;100.00
74524;BME280;63074;44.696;10.358;2022-10-16T05:36:28;100490.78;;;14.59;100.00
74524;BME280;63074;44.696;10.358;2022-10-16T05:38:54;100485.84;;;14.34;100.00
74524;BME280;63074;44.696;10.358;2022-10-16T05:41:19;100485.19;;;14.43;100.00
74524;BME280;63074;44.696;10.358;2022-10-16T05:43:47;100493.03;;;14.45;100.00
74524;BME280;63074;44.696;10.358;2022-10-16T05:46:12;100488.66;;;14.61;100.00
74524;BME280;63074;44.696;10.358;2022-10-16T05:48:38;100496.19;;;14.59;100.00
74524;BME280;63074;44.696;10.358;2022-10-16T05:51:09;100497.50;;;14.56;100.00
74524;BME280;63074;44.696;10.358;2022-10-16T05:53:37;100500.13;;;14.68;100.00
74524;BME280;63074;44.696;10.358;2022-10-16T05:56:03;100500.22;;;14.78;100.00
74524;BME280;63074;44.696;10.358;2022-10-16T05:58:31;100508.16;;;14.84;100.00
74524;BME280;63074;44.696;10.358;2022-10-16T06:00:58;100502.13;;;14.99;100.00
74524;BME280;63074;44.696;10.358;2022-10-16T06:03:27;100514.41;;;15.12;100.00
74524;BME280;63074;44.696;10.358;2022-10-16T06:05:53;100511.84;;;15.22;100.00
74524;BME280;63074;44.696;10.358;2022-10-16T06:08:20;100512.72;;;15.33;100.00
74524;BME280;63074;44.696;10.358;2022-10-16T06:10:46;100514.09;;;15.30;100.00
74524;BME280;63074;44.696;10.358;2022-10-16T06:13:15;100523.63;;;15.38;100.00
74524;BME280;63074;44.696;10.358;2022-10-16T06:15:41;100532.72;;;15.53;100.00
74524;BME280;63074;44.696;10.358;2022-10-16T06:18:10;100525.06;;;15.72;100.00
74524;BME280;63074;44.696;10.358;2022-10-16T06:20:36;100532.47;;;15.82;100.00
74524;BME280;63074;44.696;10.358;2022-10-16T06:23:02;100531.34;;;15.78;100.00
74524;BME280;63074;44.696;10.358;2022-10-16T06:25:30;100540.56;;;15.77;100.00
74524;BME280;63074;44.696;10.358;2022-10-16T06:27:55;100539.56;;;15.88;100.00
74524;BME280;63074;44.696;10.358;2022-10-16T06:30:20;100545.63;;;16.00;100.00
74524;BME280;63074;44.696;10.358;2022-10-16T06:32:46;100555.91;;;15.98;100.00
74524;BME280;63074;44.696;10.358;2022-10-16T06:35:11;100560.69;;;15.86;100.00
74524;BME280;63074;44.696;10.358;2022-10-16T06:37:36;100557.44;;;15.84;100.00
74524;BME280;63074;44.696;10.358;2022-10-16T06:40:02;100568.53;;;15.82;100.00
74524;BME280;63074;44.696;10.358;2022-10-16T06:42:29;100575.59;;;15.88;100.00
74524;BME280;63074;44.696;10.358;2022-10-16T06:44:55;100573.75;;;15.94;100.00
74524;BME280;63074;44.696;10.358;2022-10-16T06:47:20;100572.38;;;15.92;100.00
74524;BME280;63074;44.696;10.358;2022-10-16T06:49:45;100574.19;;;16.13;100.00
74524;BME280;63074;44.696;10.358;2022-10-16T06:52:11;100578.50;;;16.09;100.00
74524;BME280;63074;44.696;10.358;2022-10-16T06:54:36;100578.28;;;16.15;100.00
74524;BME280;63074;44.696;10.358;2022-10-16T06:57:02;100578.56;;;16.19;100.00
74524;BME280;63074;44.696;10.358;2022-10-16T06:59:30;100582.41;;;16.23;100.00
74524;BME280;63074;44.696;10.358;2022-10-16T07:01:55;100587.66;;;16.35;100.00
74524;BME280;63074;44.696;10.358;2022-10-16T07:04:21;100587.44;;;16.41;100.00
74524;BME280;63074;44.696;10.358;2022-10-16T07:06:46;100598.59;;;16.45;100.00
74524;BME280;63074;44.696;10.358;2022-10-16T07:09:12;100593.50;;;16.59;100.00
74524;BME280;63074;44.696;10.358;2022-10-16T07:11:38;100591.75;;;16.74;100.00
74524;BME280;63074;44.696;10.358;2022-10-16T07:14:04;100602.09;;;16.82;100.00
74524;BME280;63074;44.696;10.358;2022-10-16T07:16:32;100603.19;;;16.86;100.00
74524;BME280;63074;44.696;10.358;2022-10-16T07:18:59;100609.47;;;16.92;100.00
74524;BME280;63074;44.696;10.358;2022-10-16T07:21:33;100605.22;;;17.11;100.00
74524;BME280;63074;44.696;10.358;2022-10-16T07:24:05;100612.09;;;17.29;100.00
74524;BME280;63074;44.696;10.358;2022-10-16T07:26:34;100609.19;;;17.61;100.00
74524;BME280;63074;44.696;10.358;2022-10-16T07:28:59;100616.31;;;17.77;100.00
74524;BME280;63074;44.696;10.358;2022-10-16T07:31:26;100618.25;;;17.87;100.00
74524;BME280;63074;44.696;10.358;2022-10-16T07:33:52;100625.03;;;17.95;100.00
74524;BME280;63074;44.696;10.358;2022-10-16T07:36:19;100622.59;;;17.98;100.00
74524;BME280;63074;44.696;10.358;2022-10-16T07:38:45;100630.50;;;18.05;100.00
74524;BME280;63074;44.696;10.358;2022-10-16T07:41:14;100636.16;;;17.78;100.00
74524;BME280;63074;44.696;10.358;2022-10-16T07:43:40;100635.06;;;17.74;100.00
74524;BME280;63074;44.696;10.358;2022-10-16T07:46:05;100644.59;;;17.76;100.00
74524;BME280;63074;44.696;10.358;2022-10-16T07:48:33;100642.72;;;18.02;100.00
74524;BME280;63074;44.696;10.358;2022-10-16T07:51:03;100636.50;;;18.12;98.40
74524;BME280;63074;44.696;10.358;2022-10-16T07:53:30;100634.84;;;18.46;97.50
74524;BME280;63074;44.696;10.358;2022-10-16T07:56:03;100640.56;;;18.70;95.38
74524;BME280;63074;44.696;10.358;2022-10-16T07:58:30;100650.59;;;18.80;94.03
74524;BME280;63074;44.696;10.358;2022-10-16T08:00:56;100651.72;;;18.74;93.12
74524;BME280;63074;44.696;10.358;2022-10-16T08:03:22;100654.13;;;18.91;92.48
74524;BME280;63074;44.696;10.358;2022-10-16T08:05:47;100652.50;;;18.84;93.98
74524;BME280;63074;44.696;10.358;2022-10-16T08:08:14;100661.00;;;18.68;98.73
74524;BME280;63074;44.696;10.358;2022-10-16T08:10:40;100654.94;;;18.96;99.94
74524;BME280;63074;44.696;10.358;2022-10-16T08:13:07;100664.19;;;19.00;100.00
74524;BME280;63074;44.696;10.358;2022-10-16T08:15:32;100659.53;;;19.06;99.36
74524;BME280;63074;44.696;10.358;2022-10-16T08:18:01;100658.66;;;19.31;95.75
74524;BME280;63074;44.696;10.358;2022-10-16T08:20:27;100667.88;;;19.35;96.67
74524;BME280;63074;44.696;10.358;2022-10-16T08:22:53;100667.88;;;19.40;97.27
74524;BME280;63074;44.696;10.358;2022-10-16T08:25:20;100670.84;;;19.48;97.62
74524;BME280;63074;44.696;10.358;2022-10-16T08:27:46;100674.84;;;19.66;95.09
74524;BME280;63074;44.696;10.358;2022-10-16T08:30:12;100672.06;;;19.81;93.86
74524;BME280;63074;44.696;10.358;2022-10-16T08:32:38;100670.72;;;19.79;94.59
74524;BME280;63074;44.696;10.358;2022-10-16T08:35:04;100672.34;;;19.80;94.02
74524;BME280;63074;44.696;10.358;2022-10-16T08:37:31;100677.59;;;19.66;97.25
74524;BME280;63074;44.696;10.358;2022-10-16T08:39:58;100679.16;;;19.82;98.99
74524;BME280;63074;44.696;10.358;2022-10-16T08:45:21;100673.13;;;20.24;93.76
74524;BME280;63074;44.696;10.358;2022-10-16T08:48:10;100672.81;;;20.31;93.66
74524;BME280;63074;44.696;10.358;2022-10-16T08:50:40;100673.06;;;20.40;91.95
74524;BME280;63074;44.696;10.358;2022-10-16T08:53:06;100678.38;;;20.55;90.39
74524;BME280;63074;44.696;10.358;2022-10-16T08:55:43;100678.66;;;20.53;89.76
74524;BME280;63074;44.696;10.358;2022-10-16T08:58:16;100677.03;;;20.52;91.18
74524;BME280;63074;44.696;10.358;2022-10-16T09:00:45;100672.66;;;20.51;88.43
74524;BME280;63074;44.696;10.358;2022-10-16T09:03:45;100676.22;;;20.52;87.69
74524;BME280;63074;44.696;10.358;2022-10-16T09:11:40;100683.97;;;20.35;83.47
74524;BME280;63074;44.696;10.358;2022-10-16T09:17:12;100687.38;;;20.55;86.82
74524;BME280;63074;44.696;10.358;2022-10-16T09:19:48;100696.44;;;20.80;83.61
74524;BME280;63074;44.696;10.358;2022-10-16T09:22:17;100696.34;;;20.90;80.72
74524;BME280;63074;44.696;10.358;2022-10-16T09:24:43;100697.63;;;20.74;82.32
74524;BME280;63074;44.696;10.358;2022-10-16T09:27:13;100696.31;;;20.95;81.21
74524;BME280;63074;44.696;10.358;2022-10-16T09:29:40;100689.84;;;21.10;81.21
74524;BME280;63074;44.696;10.358;2022-10-16T09:32:15;100691.03;;;21.33;78.65
74524;BME280;63074;44.696;10.358;2022-10-16T09:34:47;100693.56;;;20.95;80.90
74524;BME280;63074;44.696;10.358;2022-10-16T09:37:17;100689.25;;;21.42;80.15
74524;BME280;63074;44.696;10.358;2022-10-16T09:39:54;100688.72;;;21.40;79.56
74524;BME280;63074;44.696;10.358;2022-10-16T09:42:27;100690.41;;;20.83;83.24
74524;BME280;63074;44.696;10.358;2022-10-16T09:44:56;100687.00;;;21.25;81.63
74524;BME280;63074;44.696;10.358;2022-10-16T09:47:24;100685.53;;;21.75;79.92
74524;BME280;63074;44.696;10.358;2022-10-16T09:49:59;100685.03;;;21.73;80.98
74524;BME280;63074;44.696;10.358;2022-10-16T09:52:28;100683.03;;;20.83;84.18
74524;BME280;63074;44.696;10.358;2022-10-16T09:54:55;100684.19;;;21.06;81.98
74524;BME280;63074;44.696;10.358;2022-10-16T09:57:21;100684.06;;;21.40;80.46
74524;BME280;63074;44.696;10.358;2022-10-16T09:59:52;100677.25;;;21.62;77.33
74524;BME280;63074;44.696;10.358;2022-10-16T10:02:20;100686.41;;;21.28;77.57
74524;BME280;63074;44.696;10.358;2022-10-16T10:04:52;100691.28;;;21.55;76.29
74524;BME280;63074;44.696;10.358;2022-10-16T10:07:26;100692.09;;;21.55;75.71
74524;BME280;63074;44.696;10.358;2022-10-16T10:09:53;100687.47;;;21.75;75.03
74524;BME280;63074;44.696;10.358;2022-10-16T10:12:24;100687.41;;;21.99;73.85
74524;BME280;63074;44.696;10.358;2022-10-16T10:14:56;100691.94;;;22.08;74.46
74524;BME280;63074;44.696;10.358;2022-10-16T10:17:26;100687.34;;;21.85;75.71
74524;BME280;63074;44.696;10.358;2022-10-16T10:20:23;100692.44;;;21.92;75.30
74524;BME280;63074;44.696;10.358;2022-10-16T10:22:49;100692.44;;;22.29;73.53
74524;BME280;63074;44.696;10.358;2022-10-16T10:33:57;100688.41;;;22.08;73.39
74524;BME280;63074;44.696;10.358;2022-10-16T10:36:38;100680.34;;;22.16;73.67
74524;BME280;63074;44.696;10.358;2022-10-16T10:39:13;100679.66;;;22.57;72.72
74524;BME280;63074;44.696;10.358;2022-10-16T10:52:59;100686.47;;;22.60;73.46
74524;BME280;63074;44.696;10.358;2022-10-16T11:01:14;100682.75;;;23.02;70.92
74524;BME280;63074;44.696;10.358;2022-10-16T11:04:14;100679.72;;;23.31;70.42
74524;BME280;63074;44.696;10.358;2022-10-16T11:06:57;100675.31;;;23.43;70.02
74524;BME280;63074;44.696;10.358;2022-10-16T11:09:28;100676.13;;;23.44;69.45
74524;BME280;63074;44.696;10.358;2022-10-16T11:12:19;100673.19;;;23.13;69.77
74524;BME280;63074;44.696;10.358;2022-10-16T11:17:48;100676.13;;;23.16;69.79
74524;BME280;63074;44.696;10.358;2022-10-16T11:20:24;100667.81;;;23.21;69.56
74524;BME280;63074;44.696;10.358;2022-10-16T11:22:56;100669.66;;;23.53;68.01
74524;BME280;63074;44.696;10.358;2022-10-16T11:25:27;100667.31;;;23.33;69.73
74524;BME280;63074;44.696;10.358;2022-10-16T11:28:29;100666.91;;;23.67;67.93
74524;BME280;63074;44.696;10.358;2022-10-16T11:34:03;100677.00;;;24.83;64.42
74524;BME280;63074;44.696;10.358;2022-10-16T11:36:42;100667.78;;;24.48;64.56
74524;BME280;63074;44.696;10.358;2022-10-16T11:41:56;100670.34;;;24.76;62.90
74524;BME280;63074;44.696;10.358;2022-10-16T11:49:38;100657.75;;;28.55;51.10
74524;BME280;63074;44.696;10.358;2022-10-16T11:52:11;100663.84;;;27.36;53.21
74524;BME280;63074;44.696;10.358;2022-10-16T11:54:53;100656.78;;;28.18;51.71
74524;BME280;63074;44.696;10.358;2022-10-16T11:57:33;100652.72;;;26.60;55.50
74524;BME280;63074;44.696;10.358;2022-10-16T12:00:17;100658.63;;;26.32;55.99
74524;BME280;63074;44.696;10.358;2022-10-16T12:10:33;100655.38;;;26.21;56.73
74524;BME280;63074;44.696;10.358;2022-10-16T12:13:03;100664.91;;;26.58;56.62
74524;BME280;63074;44.696;10.358;2022-10-16T12:15:32;100661.50;;;26.62;57.25
74524;BME280;63074;44.696;10.358;2022-10-16T12:17:57;100663.75;;;26.60;55.50
74524;BME280;63074;44.696;10.358;2022-10-16T12:20:29;100663.16;;;25.94;57.87
74524;BME280;63074;44.696;10.358;2022-10-16T12:23:04;100666.06;;;25.80;58.50
74524;BME280;63074;44.696;10.358;2022-10-16T12:25:34;100668.25;;;25.04;60.82
74524;BME280;63074;44.696;10.358;2022-10-16T12:28:21;100661.19;;;28.52;51.21
74524;BME280;63074;44.696;10.358;2022-10-16T12:31:01;100668.75;;;26.75;55.27
74524;BME280;63074;44.696;10.358;2022-10-16T12:33:36;100667.13;;;25.62;58.75
74524;BME280;63074;44.696;10.358;2022-10-16T12:36:45;100670.94;;;25.26;59.83
74524;BME280;63074;44.696;10.358;2022-10-16T12:38:51;100670.69;;;25.62;58.85
74524;BME280;63074;44.696;10.358;2022-10-16T12:41:29;100677.00;;;25.54;58.96
74524;BME280;63074;44.696;10.358;2022-10-16T12:43:55;100675.38;;;25.05;60.01
74524;BME280;63074;44.696;10.358;2022-10-16T12:46:24;100673.25;;;25.02;60.19
74524;BME280;63074;44.696;10.358;2022-10-16T12:51:53;100671.34;;;23.77;64.67
74524;BME280;63074;44.696;10.358;2022-10-16T12:59:35;100676.59;;;24.23;67.36
74524;BME280;63074;44.696;10.358;2022-10-16T13:10:28;100680.97;;;24.69;63.17
74524;BME280;63074;44.696;10.358;2022-10-16T13:13:30;100681.94;;;24.95;61.69
74524;BME280;63074;44.696;10.358;2022-10-16T13:16:35;100683.59;;;24.29;63.55
74524;BME280;63074;44.696;10.358;2022-10-16T13:29:53;100682.34;;;23.99;65.10
74524;BME280;63074;44.696;10.358;2022-10-16T13:32:23;100679.38;;;24.45;64.19
74524;BME280;63074;44.696;10.358;2022-10-16T13:34:49;100685.25;;;24.52;62.76
74524;BME280;63074;44.696;10.358;2022-10-16T13:37:19;100675.19;;;24.48;64.06
74524;BME280;63074;44.696;10.358;2022-10-16T13:39:45;100665.81;;;24.27;62.95
74524;BME280;63074;44.696;10.358;2022-10-16T13:42:38;100666.28;;;24.73;61.38
74524;BME280;63074;44.696;10.358;2022-10-16T13:45:03;100676.53;;;24.81;61.11
74524;BME280;63074;44.696;10.358;2022-10-16T13:47:29;100674.88;;;25.03;59.26
74524;BME280;63074;44.696;10.358;2022-10-16T13:52:28;100681.81;;;25.00;60.29
74524;BME280;63074;44.696;10.358;2022-10-16T13:54:54;100684.41;;;25.45;60.04
74524;BME280;63074;44.696;10.358;2022-10-16T13:57:22;100675.28;;;25.75;57.99
74524;BME280;63074;44.696;10.358;2022-10-16T13:59:48;100685.16;;;25.76;57.13
74524;BME280;63074;44.696;10.358;2022-10-16T14:02:30;100680.31;;;25.90;57.22
74524;BME280;63074;44.696;10.358;2022-10-16T14:04:57;100680.41;;;25.60;58.18
74524;BME280;63074;44.696;10.358;2022-10-16T14:07:32;100682.63;;;25.40;58.21
74524;BME280;63074;44.696;10.358;2022-10-16T14:10:19;100691.91;;;25.13;59.80
74524;BME280;63074;44.696;10.358;2022-10-16T14:13:12;100685.19;;;26.37;55.28
74524;BME280;63074;44.696;10.358;2022-10-16T14:15:46;100689.13;;;29.53;47.22
74524;BME280;63074;44.696;10.358;2022-10-16T14:18:21;100694.63;;;29.16;47.01
74524;BME280;63074;44.696;10.358;2022-10-16T14:20:48;100693.22;;;29.96;45.00
74524;BME280;63074;44.696;10.358;2022-10-16T14:23:22;100690.56;;;31.62;42.01